createdAt,value
2023-04-08T00:00:36.423Z,950.8
2023-04-08T00:01:38.495Z,950.8
2023-04-08T00:02:40.725Z,950.8
2023-04-08T00:03:43.408Z,950.8
2023-04-08T00:04:45.689Z,950.8
2023-04-08T00:05:47.514Z,950.8
2023-04-08T00:06:49.883Z,950.8
2023-04-08T00:07:51.838Z,950.8
2023-04-08T00:08:53.691Z,950.8
2023-04-08T00:09:55.541Z,950.8
2023-04-08T00:10:57.273Z,950.8
2023-04-08T00:11:59.138Z,950.9
2023-04-08T00:13:01.120Z,950.8
2023-04-08T00:14:02.919Z,950.8
2023-04-08T00:15:04.890Z,950.8
2023-04-08T00:16:06.743Z,950.8
2023-04-08T00:17:08.729Z,950.9
2023-04-08T00:18:10.896Z,950.8
2023-04-08T00:19:12.929Z,950.9
2023-04-08T00:20:14.907Z,950.9
2023-04-08T00:21:16.727Z,950.9
2023-04-08T00:22:18.555Z,950.9
2023-04-08T00:23:20.599Z,950.9
2023-04-08T00:24:22.466Z,950.9
2023-04-08T00:25:26.263Z,950.9
2023-04-08T00:26:28.206Z,950.9
2023-04-08T00:27:30.059Z,950.9
2023-04-08T00:28:31.909Z,950.9
2023-04-08T00:29:33.852Z,950.9
2023-04-08T00:30:35.822Z,950.9
2023-04-08T00:31:37.763Z,951
2023-04-08T00:32:39.796Z,950.9
2023-04-08T00:33:41.880Z,950.9
2023-04-08T00:34:43.744Z,950.9
2023-04-08T00:35:45.789Z,950.9
2023-04-08T00:36:47.643Z,950.9
2023-04-08T00:37:49.384Z,950.9
2023-04-08T00:38:51.839Z,950.9
2023-04-08T00:39:53.790Z,950.9
2023-04-08T00:40:55.651Z,950.9
2023-04-08T00:41:57.530Z,950.9
2023-04-08T00:42:59.442Z,950.8
2023-04-08T00:44:01.408Z,950.9
2023-04-08T00:45:03.254Z,950.9
2023-04-08T00:46:05.217Z,950.9
2023-04-08T00:47:07.048Z,950.9
2023-04-08T00:48:09.001Z,950.9
2023-04-08T00:49:10.950Z,951
2023-04-08T00:50:12.847Z,950.9
2023-04-08T00:51:14.858Z,951
2023-04-08T00:52:16.723Z,951
2023-04-08T00:53:18.542Z,951
2023-04-08T00:54:20.417Z,951
2023-04-08T00:55:22.257Z,951
2023-04-08T00:56:24.113Z,951
2023-04-08T00:57:26.060Z,951
2023-04-08T00:58:27.909Z,951
2023-04-08T00:59:29.759Z,951
2023-04-08T01:00:31.621Z,951
2023-04-08T01:01:33.730Z,950.9
2023-04-08T01:02:36.448Z,950.9
2023-04-08T01:03:38.965Z,951
2023-04-08T01:04:40.959Z,950.9
2023-04-08T01:05:42.837Z,950.9
2023-04-08T01:06:44.759Z,950.9
2023-04-08T01:07:46.622Z,950.9
2023-04-08T01:08:49.130Z,951
2023-04-08T01:09:51.752Z,951
2023-04-08T01:10:53.597Z,951
2023-04-08T01:11:55.460Z,951
2023-04-08T01:12:57.301Z,950.9
2023-04-08T01:13:59.241Z,950.9
2023-04-08T01:15:01.218Z,950.9
2023-04-08T01:16:03.488Z,950.9
2023-04-08T01:17:05.417Z,950.9
2023-04-08T01:18:07.376Z,950.9
2023-04-08T01:19:09.310Z,950.9
2023-04-08T01:20:11.171Z,950.9
2023-04-08T01:21:13.041Z,950.9
2023-04-08T01:22:14.878Z,950.9
2023-04-08T01:23:16.724Z,950.9
2023-04-08T01:24:18.679Z,950.9
2023-04-08T01:25:20.527Z,950.9
2023-04-08T01:26:22.389Z,950.9
2023-04-08T01:27:24.327Z,950.9
2023-04-08T01:28:26.167Z,950.9
2023-04-08T01:29:27.922Z,951
2023-04-08T01:30:29.671Z,950.9
2023-04-08T01:31:31.644Z,950.9
2023-04-08T01:32:34.199Z,950.9
2023-04-08T01:33:36.048Z,950.9
2023-04-08T01:34:37.837Z,950.9
2023-04-08T01:35:39.758Z,950.9
2023-04-08T01:36:41.721Z,951
2023-04-08T01:37:43.638Z,951
2023-04-08T01:38:45.489Z,951
2023-04-08T01:39:47.347Z,951
2023-04-08T01:40:49.105Z,951
2023-04-08T01:41:50.938Z,951
2023-04-08T01:42:52.802Z,951
2023-04-08T01:43:54.654Z,951
2023-04-08T01:44:56.520Z,951
2023-04-08T01:45:58.700Z,951
2023-04-08T01:47:00.769Z,951
2023-04-08T01:48:02.903Z,951
2023-04-08T01:49:04.916Z,951
2023-04-08T01:50:06.874Z,951
2023-04-08T01:51:08.718Z,951
2023-04-08T01:52:10.598Z,951
2023-04-08T01:53:12.555Z,951
2023-04-08T01:54:14.584Z,951
2023-04-08T01:55:16.462Z,951
2023-04-08T01:56:18.388Z,951
2023-04-08T01:57:20.157Z,951
2023-04-08T01:58:22.087Z,951
2023-04-08T01:59:24.029Z,951.1
2023-04-08T02:00:25.787Z,951.1
2023-04-08T02:01:27.772Z,951.1
2023-04-08T02:02:30.155Z,951.1
2023-04-08T02:03:33.050Z,951.1
2023-04-08T02:04:35.646Z,951.1
2023-04-08T02:05:37.794Z,951.1
2023-04-08T02:06:39.645Z,951.1
2023-04-08T02:07:41.518Z,951.2
2023-04-08T02:08:43.447Z,951.2
2023-04-08T02:09:45.305Z,951.2
2023-04-08T02:10:47.264Z,951.2
2023-04-08T02:11:49.105Z,951.2
2023-04-08T02:12:51.072Z,951.2
2023-04-08T02:13:52.797Z,951.2
2023-04-08T02:14:54.653Z,951.2
2023-04-08T02:15:56.514Z,951.2
2023-04-08T02:16:58.352Z,951.2
2023-04-08T02:18:00.449Z,951.2
2023-04-08T02:19:02.371Z,951.2
2023-04-08T02:20:04.219Z,951.2
2023-04-08T02:21:05.963Z,951.2
2023-04-08T02:22:07.802Z,951.2
2023-04-08T02:23:09.794Z,951.2
2023-04-08T02:24:11.613Z,951.2
2023-04-08T02:25:13.465Z,951.2
2023-04-08T02:26:15.413Z,951.2
2023-04-08T02:27:17.267Z,951.2
2023-04-08T02:28:19.210Z,951.2
2023-04-08T02:29:21.166Z,951.2
2023-04-08T02:30:22.921Z,951.2
2023-04-08T02:31:24.870Z,951.2
2023-04-08T02:32:26.945Z,951.2
2023-04-08T02:33:28.859Z,951.2
2023-04-08T02:34:30.731Z,951.2
2023-04-08T02:35:32.809Z,951.2
2023-04-08T02:36:34.839Z,951.2
2023-04-08T02:37:36.815Z,951.2
2023-04-08T02:38:38.658Z,951.2
2023-04-08T02:39:40.583Z,951.2
2023-04-08T02:40:42.544Z,951.2
2023-04-08T02:41:44.400Z,951.2
2023-04-08T02:42:46.242Z,951.2
2023-04-08T02:43:48.024Z,951.2
2023-04-08T02:44:49.847Z,951.2
2023-04-08T02:45:51.960Z,951.2
2023-04-08T02:46:53.854Z,951.2
2023-04-08T02:47:55.849Z,951.2
2023-04-08T02:48:57.852Z,951.3
2023-04-08T02:49:59.809Z,951.3
2023-04-08T02:51:01.866Z,951.3
2023-04-08T02:52:03.939Z,951.2
2023-04-08T02:53:05.757Z,951.3
2023-04-08T02:54:07.636Z,951.2
2023-04-08T02:55:09.569Z,951.2
2023-04-08T02:56:11.468Z,951.2
2023-04-08T02:57:13.377Z,951.2
2023-04-08T02:58:15.323Z,951.2
2023-04-08T02:59:17.170Z,951.3
2023-04-08T03:00:19.031Z,951.2
2023-04-08T03:01:21.150Z,951.2
2023-04-08T03:02:23.719Z,951.2
2023-04-08T03:03:26.143Z,951.2
2023-04-08T03:04:28.160Z,951.3
2023-04-08T03:05:29.939Z,951.3
2023-04-08T03:06:31.652Z,951.3
2023-04-08T03:07:33.512Z,951.3
2023-04-08T03:08:35.461Z,951.3
2023-04-08T03:09:37.236Z,951.3
2023-04-08T03:10:39.152Z,951.3
2023-04-08T03:11:41.008Z,951.3
2023-04-08T03:12:42.958Z,951.2
2023-04-08T03:13:44.831Z,951.2
2023-04-08T03:14:46.665Z,951.2
2023-04-08T03:15:48.512Z,951.2
2023-04-08T03:16:50.588Z,951.2
2023-04-08T03:17:52.839Z,951.2
2023-04-08T03:18:54.773Z,951.2
2023-04-08T03:19:56.558Z,951.2
2023-04-08T03:20:58.380Z,951.2
2023-04-08T03:22:00.325Z,951.2
2023-04-08T03:23:02.188Z,951.2
2023-04-08T03:24:04.032Z,951.2
2023-04-08T03:25:05.919Z,951.2
2023-04-08T03:26:07.724Z,951.2
2023-04-08T03:27:09.678Z,951.3
2023-04-08T03:28:11.843Z,951.3
2023-04-08T03:29:13.790Z,951.3
2023-04-08T03:30:15.956Z,951.3
2023-04-08T03:31:18.102Z,951.3
2023-04-08T03:32:20.061Z,951.3
2023-04-08T03:33:21.885Z,951.3
2023-04-08T03:34:23.760Z,951.3
2023-04-08T03:35:25.613Z,951.3
2023-04-08T03:36:27.567Z,951.3
2023-04-08T03:37:29.520Z,951.3
2023-04-08T03:38:31.341Z,951.3
2023-04-08T03:39:33.222Z,951.3
2023-04-08T03:40:35.033Z,951.3
2023-04-08T03:41:36.906Z,951.3
2023-04-08T03:42:38.768Z,951.3
2023-04-08T03:43:40.611Z,951.3
2023-04-08T03:44:42.461Z,951.3
2023-04-08T03:45:44.437Z,951.3
2023-04-08T03:46:46.343Z,951.3
2023-04-08T03:47:48.335Z,951.3
2023-04-08T03:48:50.923Z,951.3
2023-04-08T03:49:53.196Z,951.3
2023-04-08T03:50:55.012Z,951.3
2023-04-08T03:51:56.942Z,951.3
2023-04-08T03:52:58.801Z,951.3
2023-04-08T03:54:00.962Z,951.3
2023-04-08T03:55:02.810Z,951.3
2023-04-08T03:56:04.790Z,951.3
2023-04-08T03:57:06.715Z,951.3
2023-04-08T03:58:08.657Z,951.2
2023-04-08T03:59:10.613Z,951.2
2023-04-08T04:00:12.469Z,951.3
2023-04-08T04:01:14.318Z,951.2
2023-04-08T04:02:16.421Z,951.2
2023-04-08T04:03:18.987Z,951.3
2023-04-08T04:04:22.299Z,951.3
2023-04-08T04:05:24.386Z,951.3
2023-04-08T04:06:26.222Z,951.3
2023-04-08T04:07:28.081Z,951.3
2023-04-08T04:08:29.922Z,951.2
2023-04-08T04:09:31.813Z,951.2
2023-04-08T04:10:33.609Z,951.2
2023-04-08T04:11:35.608Z,951.2
2023-04-08T04:12:37.536Z,951.2
2023-04-08T04:13:39.376Z,951.2
2023-04-08T04:14:41.168Z,951.2
2023-04-08T04:15:43.199Z,951.2
2023-04-08T04:16:45.144Z,951.2
2023-04-08T04:17:47.221Z,951.2
2023-04-08T04:18:50.146Z,951.3
2023-04-08T04:19:52.726Z,951.2
2023-04-08T04:20:54.586Z,951.3
2023-04-08T04:21:56.531Z,951.3
2023-04-08T04:22:58.384Z,951.4
2023-04-08T04:24:00.241Z,951.4
2023-04-08T04:25:02.289Z,951.4
2023-04-08T04:26:04.034Z,951.4
2023-04-08T04:27:05.929Z,951.4
2023-04-08T04:28:07.708Z,951.4
2023-04-08T04:29:09.584Z,951.4
2023-04-08T04:30:11.639Z,951.4
2023-04-08T04:31:13.630Z,951.4
2023-04-08T04:32:15.423Z,951.4
2023-04-08T04:33:17.336Z,951.4
2023-04-08T04:34:19.244Z,951.4
2023-04-08T04:35:21.290Z,951.4
2023-04-08T04:36:23.151Z,951.4
2023-04-08T04:37:25.012Z,951.3
2023-04-08T04:38:26.846Z,951.3
2023-04-08T04:39:28.807Z,951.4
2023-04-08T04:40:30.648Z,951.4
2023-04-08T04:41:32.506Z,951.4
2023-04-08T04:42:34.382Z,951.4
2023-04-08T04:43:36.199Z,951.4
2023-04-08T04:44:37.953Z,951.3
2023-04-08T04:45:39.696Z,951.3
2023-04-08T04:46:41.670Z,951.3
2023-04-08T04:47:43.917Z,951.3
2023-04-08T04:48:46.167Z,951.3
2023-04-08T04:49:47.924Z,951.3
2023-04-08T04:50:49.667Z,951.3
2023-04-08T04:51:51.615Z,951.3
2023-04-08T04:52:53.466Z,951.3
2023-04-08T04:53:55.317Z,951.4
2023-04-08T04:54:57.254Z,951.3
2023-04-08T04:55:59.118Z,951.3
2023-04-08T04:57:00.995Z,951.4
2023-04-08T04:58:03.027Z,951.4
2023-04-08T04:59:04.871Z,951.4
2023-04-08T05:00:06.669Z,951.4
2023-04-08T05:01:08.479Z,951.4
2023-04-08T05:02:10.714Z,951.4
2023-04-08T05:03:13.037Z,951.4
2023-04-08T05:04:15.258Z,951.4
2023-04-08T05:05:17.233Z,951.4
2023-04-08T05:06:19.171Z,951.4
2023-04-08T05:07:21.005Z,951.4
2023-04-08T05:08:22.980Z,951.4
2023-04-08T05:09:24.913Z,951.4
2023-04-08T05:10:26.766Z,951.4
2023-04-08T05:11:28.620Z,951.4
2023-04-08T05:12:30.470Z,951.4
2023-04-08T05:13:32.375Z,951.5
2023-04-08T05:14:34.269Z,951.4
2023-04-08T05:15:35.999Z,951.4
2023-04-08T05:16:38.120Z,951.4
2023-04-08T05:17:40.385Z,951.4
2023-04-08T05:18:42.292Z,951.4
2023-04-08T05:19:44.134Z,951.4
2023-04-08T05:20:45.987Z,951.4
2023-04-08T05:21:47.865Z,951.4
2023-04-08T05:22:49.631Z,951.4
2023-04-08T05:23:51.440Z,951.4
2023-04-08T05:24:53.280Z,951.4
2023-04-08T05:25:55.037Z,951.4
2023-04-08T05:26:56.968Z,951.4
2023-04-08T05:27:58.666Z,951.4
2023-04-08T05:29:00.504Z,951.4
2023-04-08T05:30:02.442Z,951.4
2023-04-08T05:31:04.411Z,951.4
2023-04-08T05:32:06.444Z,951.5
2023-04-08T05:33:08.439Z,951.4
2023-04-08T05:34:10.454Z,951.4
2023-04-08T05:35:12.303Z,951.4
2023-04-08T05:36:14.257Z,951.4
2023-04-08T05:37:16.145Z,951.5
2023-04-08T05:38:17.956Z,951.4
2023-04-08T05:39:19.807Z,951.5
2023-04-08T05:40:21.754Z,951.4
2023-04-08T05:41:23.597Z,951.4
2023-04-08T05:42:25.562Z,951.4
2023-04-08T05:43:27.406Z,951.5
2023-04-08T05:44:29.393Z,951.4
2023-04-08T05:45:31.222Z,951.5
2023-04-08T05:46:33.191Z,951.5
2023-04-08T05:47:35.144Z,951.4
2023-04-08T05:48:37.088Z,951.4
2023-04-08T05:49:38.960Z,951.4
2023-04-08T05:50:40.663Z,951.5
2023-04-08T05:51:42.521Z,951.4
2023-04-08T05:52:44.464Z,951.4
2023-04-08T05:53:46.322Z,951.5
2023-04-08T05:54:48.180Z,951.5
2023-04-08T05:55:50.014Z,951.4
2023-04-08T05:56:51.873Z,951.4
2023-04-08T05:57:53.731Z,951.4
2023-04-08T05:58:55.566Z,951.4
2023-04-08T05:59:57.650Z,951.4
2023-04-08T06:00:59.474Z,951.4
2023-04-08T06:02:01.582Z,951.4
2023-04-08T06:03:04.872Z,951.4
2023-04-08T06:04:07.942Z,951.4
2023-04-08T06:05:10.354Z,951.4
2023-04-08T06:06:12.199Z,951.5
2023-04-08T06:07:14.020Z,951.5
2023-04-08T06:08:15.890Z,951.4
2023-04-08T06:09:17.823Z,951.4
2023-04-08T06:10:19.805Z,951.4
2023-04-08T06:11:21.654Z,951.4
2023-04-08T06:12:23.510Z,951.5
2023-04-08T06:13:25.601Z,951.4
2023-04-08T06:14:27.513Z,951.5
2023-04-08T06:15:29.488Z,951.4
2023-04-08T06:16:31.551Z,951.4
2023-04-08T06:17:33.583Z,951.5
2023-04-08T06:18:35.516Z,951.4
2023-04-08T06:19:37.305Z,951.4
2023-04-08T06:20:39.225Z,951.4
2023-04-08T06:21:41.073Z,951.4
2023-04-08T06:22:42.923Z,951.4
2023-04-08T06:23:44.774Z,951.4
2023-04-08T06:24:46.615Z,951.4
2023-04-08T06:25:48.365Z,951.4
2023-04-08T06:26:50.320Z,951.4
2023-04-08T06:27:52.174Z,951.4
2023-04-08T06:28:54.014Z,951.4
2023-04-08T06:29:55.874Z,951.4
2023-04-08T06:30:57.974Z,951.4
2023-04-08T06:32:00.200Z,951.4
2023-04-08T06:33:02.477Z,951.4
2023-04-08T06:34:04.511Z,951.4
2023-04-08T06:35:06.348Z,951.4
2023-04-08T06:36:08.396Z,951.4
2023-04-08T06:37:10.366Z,951.4
2023-04-08T06:38:12.189Z,951.4
2023-04-08T06:39:14.061Z,951.5
2023-04-08T06:40:16.210Z,951.5
2023-04-08T06:41:18.075Z,951.5
2023-04-08T06:42:23.205Z,951.5
2023-04-08T06:43:25.051Z,951.5
2023-04-08T06:44:26.884Z,951.5
2023-04-08T06:45:28.908Z,951.5
2023-04-08T06:46:30.931Z,951.5
2023-04-08T06:47:32.906Z,951.5
2023-04-08T06:48:34.706Z,951.5
2023-04-08T06:49:36.523Z,951.5
2023-04-08T06:50:38.395Z,951.5
2023-04-08T06:51:40.357Z,951.5
2023-04-08T06:52:42.206Z,951.5
2023-04-08T06:53:44.063Z,951.5
2023-04-08T06:54:46.000Z,951.5
2023-04-08T06:55:47.860Z,951.5
2023-04-08T06:56:49.787Z,951.6
2023-04-08T06:57:51.653Z,951.5
2023-04-08T06:58:53.719Z,951.5
2023-04-08T06:59:55.556Z,951.5
2023-04-08T07:00:57.568Z,951.5
2023-04-08T07:01:59.938Z,951.5
2023-04-08T07:03:02.674Z,951.5
2023-04-08T07:04:04.822Z,951.5
2023-04-08T07:05:06.652Z,951.5
2023-04-08T07:06:08.523Z,951.5
2023-04-08T07:07:10.359Z,951.5
2023-04-08T07:08:12.218Z,951.5
2023-04-08T07:09:14.056Z,951.5
2023-04-08T07:10:16.006Z,951.5
2023-04-08T07:11:18.273Z,951.5
2023-04-08T07:12:20.177Z,951.6
2023-04-08T07:13:22.008Z,951.5
2023-04-08T07:14:23.916Z,951.5
2023-04-08T07:15:25.886Z,951.5
2023-04-08T07:16:27.947Z,951.6
2023-04-08T07:17:29.948Z,951.5
2023-04-08T07:18:31.832Z,951.5
2023-04-08T07:19:33.800Z,951.5
2023-04-08T07:20:35.652Z,951.5
2023-04-08T07:21:37.467Z,951.6
2023-04-08T07:22:39.344Z,951.6
2023-04-08T07:23:41.187Z,951.6
2023-04-08T07:24:43.045Z,951.6
2023-04-08T07:25:44.988Z,951.6
2023-04-08T07:26:46.845Z,951.6
2023-04-08T07:27:48.694Z,951.6
2023-04-08T07:28:51.572Z,951.6
2023-04-08T07:29:53.922Z,951.6
2023-04-08T07:30:55.953Z,951.6
2023-04-08T07:31:58.031Z,951.6
2023-04-08T07:33:01.776Z,951.6
2023-04-08T07:34:03.890Z,951.6
2023-04-08T07:35:05.665Z,951.6
2023-04-08T07:36:07.589Z,951.6
2023-04-08T07:37:09.439Z,951.6
2023-04-08T07:38:11.314Z,951.6
2023-04-08T07:39:13.348Z,951.6
2023-04-08T07:40:15.095Z,951.6
2023-04-08T07:41:17.039Z,951.7
2023-04-08T07:42:18.884Z,951.6
2023-04-08T07:43:20.746Z,951.7
2023-04-08T07:44:22.687Z,951.7
2023-04-08T07:45:24.667Z,951.7
2023-04-08T07:46:26.840Z,951.7
2023-04-08T07:47:28.955Z,951.7
2023-04-08T07:48:30.950Z,951.7
2023-04-08T07:49:32.862Z,951.7
2023-04-08T07:51:11.828Z,951.7
2023-04-08T07:52:13.734Z,951.8
2023-04-08T07:53:15.593Z,951.7
2023-04-08T07:54:17.502Z,951.8
2023-04-08T07:55:19.694Z,951.7
2023-04-08T07:56:22.061Z,951.8
2023-04-08T07:57:24.211Z,951.7
2023-04-08T07:58:26.573Z,951.8
2023-04-08T07:59:28.832Z,951.8
2023-04-08T08:00:30.583Z,951.8
2023-04-08T08:01:32.668Z,951.8
2023-04-08T08:02:34.882Z,951.8
2023-04-08T08:03:37.552Z,951.8
2023-04-08T08:04:40.850Z,951.8
2023-04-08T08:05:43.118Z,951.8
2023-04-08T08:06:44.888Z,951.8
2023-04-08T08:07:46.719Z,951.8
2023-04-08T08:08:48.657Z,951.7
2023-04-08T08:09:50.520Z,951.8
2023-04-08T08:10:52.372Z,951.8
2023-04-08T08:11:54.312Z,951.8
2023-04-08T08:12:56.067Z,951.8
2023-04-08T08:13:57.916Z,951.8
2023-04-08T08:14:59.776Z,951.8
2023-04-08T08:16:01.757Z,951.8
2023-04-08T08:17:03.766Z,951.8
2023-04-08T08:18:05.858Z,951.8
2023-04-08T08:19:07.803Z,951.8
2023-04-08T08:20:09.736Z,951.8
2023-04-08T08:21:11.484Z,951.8
2023-04-08T08:22:13.224Z,951.8
2023-04-08T08:23:15.173Z,951.8
2023-04-08T08:24:17.149Z,951.8
2023-04-08T08:25:18.958Z,951.8
2023-04-08T08:26:20.825Z,951.8
2023-04-08T08:27:22.690Z,951.8
2023-04-08T08:28:24.509Z,951.8
2023-04-08T08:29:26.277Z,951.8
2023-04-08T08:30:28.241Z,951.8
2023-04-08T08:31:30.203Z,951.8
2023-04-08T08:32:32.258Z,951.8
2023-04-08T08:33:34.289Z,951.8
2023-04-08T08:34:36.180Z,951.9
2023-04-08T08:35:38.239Z,951.9
2023-04-08T08:36:40.255Z,951.9
2023-04-08T08:37:42.109Z,951.9
2023-04-08T08:38:43.972Z,951.9
2023-04-08T08:39:46.015Z,951.9
2023-04-08T08:40:47.860Z,951.9
2023-04-08T08:41:49.704Z,951.9
2023-04-08T08:42:51.655Z,951.9
2023-04-08T08:43:53.616Z,951.9
2023-04-08T08:44:55.465Z,951.9
2023-04-08T08:45:57.333Z,951.9
2023-04-08T08:46:59.463Z,951.9
2023-04-08T08:48:01.689Z,952
2023-04-08T08:49:03.686Z,951.9
2023-04-08T08:50:05.667Z,951.9
2023-04-08T08:51:07.589Z,951.9
2023-04-08T08:52:09.433Z,952
2023-04-08T08:53:11.587Z,951.9
2023-04-08T08:54:13.544Z,952
2023-04-08T08:57:15.111Z,952
2023-04-08T08:58:16.969Z,952
2023-04-08T08:59:18.796Z,952.1
2023-04-08T09:00:20.853Z,952.1
2023-04-08T09:01:22.628Z,952.1
2023-04-08T09:02:24.970Z,952.1
2023-04-08T09:03:28.207Z,952
2023-04-08T09:04:31.176Z,952
2023-04-08T09:05:33.868Z,952
2023-04-08T09:06:36.100Z,952
2023-04-08T09:07:37.898Z,952.1
2023-04-08T09:08:39.756Z,952.1
2023-04-08T09:09:41.498Z,952.1
2023-04-08T09:10:43.449Z,952.1
2023-04-08T09:11:45.300Z,952.1
2023-04-08T09:12:47.153Z,952.1
2023-04-08T09:13:49.740Z,952.1
2023-04-08T09:14:51.984Z,952.1
2023-04-08T09:15:54.071Z,952.1
2023-04-08T09:16:55.865Z,952.1
2023-04-08T09:17:57.770Z,952.1
2023-04-08T09:18:59.798Z,952.1
2023-04-08T09:20:01.634Z,952.1
2023-04-08T09:21:03.604Z,952.1
2023-04-08T09:22:05.546Z,952.1
2023-04-08T09:23:07.173Z,952.1
2023-04-08T09:24:09.041Z,952.1
2023-04-08T09:25:10.896Z,952.1
2023-04-08T09:26:12.660Z,952.1
2023-04-08T09:27:14.483Z,952
2023-04-08T09:28:16.344Z,952.1
2023-04-08T09:29:31.370Z,952
2023-04-08T09:30:37.342Z,952
2023-04-08T09:31:39.204Z,952
2023-04-08T09:32:41.170Z,952
2023-04-08T09:33:43.098Z,952
2023-04-08T09:34:44.956Z,952
2023-04-08T09:35:46.920Z,952
2023-04-08T09:36:48.772Z,952
2023-04-08T09:37:50.608Z,951.9
2023-04-08T09:38:52.552Z,951.9
2023-04-08T09:39:54.338Z,951.9
2023-04-08T09:40:56.147Z,951.8
2023-04-08T09:41:58.103Z,951.9
2023-04-08T09:42:59.863Z,951.8
2023-04-08T09:44:01.716Z,951.8
2023-04-08T09:45:03.554Z,951.8
2023-04-08T09:46:05.624Z,951.8
2023-04-08T09:47:07.663Z,951.7
2023-04-08T09:48:09.527Z,951.7
2023-04-08T09:49:11.363Z,951.7
2023-04-08T09:50:13.236Z,951.7
2023-04-08T09:51:15.062Z,951.7
2023-04-08T09:52:16.935Z,951.7
2023-04-08T09:53:18.778Z,951.7
2023-04-08T09:54:21.026Z,951.7
2023-04-08T09:55:22.881Z,951.7
2023-04-08T09:56:24.718Z,951.7
2023-04-08T09:57:26.676Z,951.7
2023-04-08T09:58:28.457Z,951.7
2023-04-08T09:59:30.372Z,951.7
2023-04-08T10:00:32.237Z,951.7
2023-04-08T10:01:34.523Z,951.6
2023-04-08T10:02:37.152Z,951.6
2023-04-08T10:03:39.741Z,951.6
2023-04-08T10:04:42.127Z,951.6
2023-04-08T10:05:44.046Z,951.6
2023-04-08T10:06:45.889Z,951.6
2023-04-08T10:07:47.764Z,951.6
2023-04-08T10:08:49.694Z,951.5
2023-04-08T10:09:51.551Z,951.6
2023-04-08T10:10:53.386Z,951.6
2023-04-08T10:11:55.256Z,951.6
2023-04-08T10:12:57.101Z,951.6
2023-04-08T10:13:58.942Z,951.6
2023-04-08T10:15:00.688Z,951.6
2023-04-08T10:16:02.546Z,951.5
2023-04-08T10:17:04.653Z,951.6
2023-04-08T10:18:06.909Z,951.5
2023-04-08T10:19:08.919Z,951.5
2023-04-08T10:20:10.771Z,951.5
2023-04-08T10:21:12.689Z,951.5
2023-04-08T10:22:14.459Z,951.5
2023-04-08T10:23:16.314Z,951.5
2023-04-08T10:24:18.161Z,951.5
2023-04-08T10:25:20.122Z,951.5
2023-04-08T10:26:21.882Z,951.5
2023-04-08T10:27:23.634Z,951.5
2023-04-08T10:28:25.572Z,951.5
2023-04-08T10:29:27.510Z,951.5
2023-04-08T10:30:29.363Z,951.5
2023-04-08T10:31:31.240Z,951.5
2023-04-08T10:32:33.166Z,951.5
2023-04-08T10:33:40.933Z,951.5
2023-04-08T10:34:42.902Z,951.5
2023-04-08T10:35:44.963Z,951.5
2023-04-08T10:36:46.710Z,951.4
2023-04-08T10:37:48.558Z,951.4
2023-04-08T10:38:50.530Z,951.4
2023-04-08T10:39:52.476Z,951.5
2023-04-08T10:40:54.310Z,951.5
2023-04-08T10:41:56.279Z,951.4
2023-04-08T10:42:58.228Z,951.5
2023-04-08T10:44:00.091Z,951.4
2023-04-08T10:45:02.016Z,951.4
2023-04-08T10:46:03.876Z,951.4
2023-04-08T10:47:05.829Z,951.4
2023-04-08T10:48:07.669Z,951.4
2023-04-08T10:49:09.520Z,951.4
2023-04-08T10:50:11.378Z,951.4
2023-04-08T10:51:13.213Z,951.4
2023-04-08T10:52:15.178Z,951.4
2023-04-08T10:53:17.033Z,951.4
2023-04-08T10:54:18.912Z,951.4
2023-04-08T10:55:20.816Z,951.4
2023-04-08T10:56:22.640Z,951.3
2023-04-08T10:57:24.643Z,951.3
2023-04-08T10:58:26.479Z,951.3
2023-04-08T10:59:28.331Z,951.3
2023-04-08T11:00:30.163Z,951.2
2023-04-08T11:01:32.402Z,951.3
2023-04-08T11:02:34.891Z,951.2
2023-04-08T11:03:38.343Z,951.2
2023-04-08T11:04:40.614Z,951.2
2023-04-08T11:05:42.607Z,951.2
2023-04-08T11:06:44.569Z,951.1
2023-04-08T11:07:46.336Z,951.1
2023-04-08T11:08:48.050Z,951.1
2023-04-08T11:09:49.947Z,951.1
2023-04-08T11:10:51.756Z,951.1
2023-04-08T11:11:53.726Z,951.1
2023-04-08T11:12:55.639Z,951.1
2023-04-08T11:13:58.588Z,951.1
2023-04-08T11:15:00.994Z,951.1
2023-04-08T11:16:03.293Z,951.1
2023-04-08T11:17:05.208Z,951.1
2023-04-08T11:18:07.355Z,951.1
2023-04-08T11:19:09.446Z,951.1
2023-04-08T11:20:11.278Z,951.1
2023-04-08T11:21:13.226Z,951.1
2023-04-08T11:22:15.178Z,951.1
2023-04-08T11:23:17.131Z,951.1
2023-04-08T11:24:18.999Z,951.1
2023-04-08T11:25:20.871Z,951.1
2023-04-08T11:26:22.984Z,951.1
2023-04-08T11:27:25.041Z,951.1
2023-04-08T11:28:26.899Z,951.1
2023-04-08T11:29:28.739Z,951.1
2023-04-08T11:30:30.594Z,951.1
2023-04-08T11:31:32.677Z,951.1
2023-04-08T11:32:34.978Z,951.1
2023-04-08T11:33:36.958Z,951.1
2023-04-08T11:34:38.816Z,951.1
2023-04-08T11:35:40.903Z,951.1
2023-04-08T11:36:43.029Z,951.1
2023-04-08T11:37:44.875Z,951.1
2023-04-08T11:38:46.723Z,951
2023-04-08T11:39:48.577Z,951.1
2023-04-08T11:40:50.560Z,951
2023-04-08T11:41:52.489Z,951
2023-04-08T11:42:54.529Z,951
2023-04-08T11:43:56.631Z,951
2023-04-08T11:44:58.651Z,951
2023-04-08T11:46:01.211Z,951
2023-04-08T11:47:03.175Z,951
2023-04-08T11:48:05.535Z,951
2023-04-08T11:49:07.479Z,951
2023-04-08T11:50:09.445Z,951
2023-04-08T11:51:11.245Z,951
2023-04-08T11:52:13.238Z,950.9
2023-04-08T11:53:15.085Z,950.9
2023-04-08T11:54:16.923Z,950.9
2023-04-08T11:55:18.779Z,950.9
2023-04-08T11:56:20.667Z,950.9
2023-04-08T11:57:22.588Z,950.9
2023-04-08T11:58:24.408Z,950.8
2023-04-08T11:59:30.122Z,950.8
2023-04-08T12:00:31.846Z,950.8
2023-04-08T12:01:33.813Z,950.8
2023-04-08T12:02:36.179Z,950.8
2023-04-08T12:03:38.790Z,950.9
2023-04-08T12:04:41.186Z,950.8
2023-04-08T12:05:43.317Z,950.8
2023-04-08T12:06:45.179Z,950.9
2023-04-08T12:07:47.027Z,950.8
2023-04-08T12:08:48.967Z,950.8
2023-04-08T12:09:51.342Z,950.7
2023-04-08T12:10:53.082Z,950.8
2023-04-08T12:11:55.050Z,950.8
2023-04-08T12:12:56.982Z,950.8
2023-04-08T12:13:58.846Z,950.7
2023-04-08T12:15:00.801Z,950.7
2023-04-08T12:16:02.865Z,950.8
2023-04-08T12:17:04.714Z,950.8
2023-04-08T12:18:06.797Z,950.8
2023-04-08T12:19:08.713Z,950.8
2023-04-08T12:20:10.551Z,950.9
2023-04-08T12:21:12.404Z,950.8
2023-04-08T12:22:14.248Z,950.8
2023-04-08T12:23:16.084Z,950.8
2023-04-08T12:24:18.061Z,950.8
2023-04-08T12:25:19.900Z,950.8
2023-04-08T12:26:21.753Z,950.7
2023-04-08T12:27:23.727Z,950.8
2023-04-08T12:28:25.654Z,950.7
2023-04-08T12:29:27.515Z,950.8
2023-04-08T12:30:29.482Z,950.8
2023-04-08T12:31:31.573Z,950.8
2023-04-08T12:32:33.909Z,950.8
2023-04-08T12:33:35.730Z,950.8
2023-04-08T12:34:37.582Z,950.8
2023-04-08T12:35:39.690Z,950.7
2023-04-08T12:36:42.404Z,950.7
2023-04-08T12:37:44.255Z,950.7
2023-04-08T12:38:46.015Z,950.7
2023-04-08T12:39:47.864Z,950.7
2023-04-08T12:40:50.705Z,950.7
2023-04-08T12:41:52.689Z,950.7
2023-04-08T12:42:54.555Z,950.7
2023-04-08T12:43:56.399Z,950.7
2023-04-08T12:44:58.236Z,950.6
2023-04-08T12:46:00.224Z,950.6
2023-04-08T12:47:02.347Z,950.6
2023-04-08T12:48:04.450Z,950.6
2023-04-08T12:49:07.566Z,950.6
2023-04-08T12:50:10.479Z,950.6
2023-04-08T12:51:12.512Z,950.5
2023-04-08T12:52:14.365Z,950.6
2023-04-08T12:53:16.206Z,950.6
2023-04-08T12:54:17.965Z,950.5
2023-04-08T12:55:19.813Z,950.5
2023-04-08T12:56:21.763Z,950.6
2023-04-08T12:57:23.514Z,950.5
2023-04-08T12:58:25.300Z,950.5
2023-04-08T12:59:27.096Z,950.5
2023-04-08T13:00:28.931Z,950.5
2023-04-08T13:01:31.790Z,950.5
2023-04-08T13:02:34.073Z,950.5
2023-04-08T13:03:36.367Z,950.5
2023-04-08T13:04:38.502Z,950.5
2023-04-08T13:05:44.344Z,950.5
2023-04-08T13:06:46.414Z,950.5
2023-04-08T13:07:48.261Z,950.5
2023-04-08T13:08:51.030Z,950.5
2023-04-08T13:09:53.394Z,950.5
2023-04-08T13:10:55.236Z,950.4
2023-04-08T13:11:57.184Z,950.4
2023-04-08T13:12:59.044Z,950.4
2023-04-08T13:14:01.018Z,950.4
2023-04-08T13:15:02.845Z,950.3
2023-04-08T13:16:04.713Z,950.3
2023-04-08T13:17:06.648Z,950.3
2023-04-08T13:18:08.882Z,950.3
2023-04-08T13:19:10.968Z,950.3
2023-04-08T13:20:12.887Z,950.3
2023-04-08T13:21:14.695Z,950.3
2023-04-08T13:22:16.509Z,950.3
2023-04-08T13:23:18.471Z,950.2
2023-04-08T13:24:20.249Z,950.2
2023-04-08T13:25:22.078Z,950.2
2023-04-08T13:26:24.039Z,950.3